createdAt,value
2022-10-20T00:00:21.712Z,23.66
2022-10-20T00:01:21.602Z,23.66
2022-10-20T00:02:21.652Z,23.68
2022-10-20T00:03:21.625Z,23.66
2022-10-20T00:04:21.719Z,23.66
2022-10-20T00:05:21.570Z,23.68
2022-10-20T00:06:21.578Z,23.66
2022-10-20T00:07:21.529Z,23.65
2022-10-20T00:08:21.559Z,23.66
2022-10-20T00:09:21.884Z,23.66
2022-10-20T00:10:21.589Z,23.63
2022-10-20T00:11:21.499Z,23.66
2022-10-20T00:12:21.684Z,23.63
2022-10-20T00:13:21.497Z,23.66
2022-10-20T00:14:21.447Z,23.66
2022-10-20T00:15:21.516Z,23.63
2022-10-20T00:16:21.629Z,23.65
2022-10-20T00:17:21.444Z,23.63
2022-10-20T00:18:21.427Z,23.65
2022-10-20T00:19:21.405Z,23.63
2022-10-20T00:20:21.387Z,23.63
2022-10-20T00:21:21.398Z,23.63
2022-10-20T00:22:21.457Z,23.60
2022-10-20T00:23:21.304Z,23.65
2022-10-20T00:24:21.284Z,23.60
2022-10-20T00:25:21.294Z,23.61
2022-10-20T00:26:21.283Z,23.61
2022-10-20T00:27:21.464Z,23.63
2022-10-20T00:28:21.390Z,23.63
2022-10-20T00:29:21.252Z,23.60
2022-10-20T00:30:22.550Z,23.61
2022-10-20T00:31:21.216Z,23.61
2022-10-20T00:32:21.282Z,23.60
2022-10-20T00:33:21.270Z,23.58
2022-10-20T00:34:21.293Z,23.60
2022-10-20T00:35:21.201Z,23.57
2022-10-20T00:36:21.204Z,23.61
2022-10-20T00:37:21.171Z,23.60
2022-10-20T00:38:21.214Z,23.57
2022-10-20T00:39:21.140Z,23.60
2022-10-20T00:40:21.350Z,23.60
2022-10-20T00:41:21.098Z,23.58
2022-10-20T00:42:21.049Z,23.58
2022-10-20T00:43:21.128Z,23.60
2022-10-20T00:44:21.236Z,23.57
2022-10-20T00:45:21.076Z,23.57
2022-10-20T00:46:21.137Z,23.60
2022-10-20T00:47:21.006Z,23.58
2022-10-20T00:48:20.967Z,23.57
2022-10-20T00:49:20.977Z,23.55
2022-10-20T00:50:20.940Z,23.57
2022-10-20T00:51:20.985Z,23.58
2022-10-20T00:52:21.074Z,23.57
2022-10-20T00:53:20.897Z,23.57
2022-10-20T00:54:20.925Z,23.58
2022-10-20T00:55:20.846Z,23.55
2022-10-20T00:56:20.844Z,23.55
2022-10-20T00:57:20.864Z,23.55
2022-10-20T00:58:20.914Z,23.55
2022-10-20T00:59:20.794Z,23.54
2022-10-20T01:00:20.825Z,23.57
2022-10-20T01:01:21.213Z,23.54
2022-10-20T01:02:20.774Z,23.55
2022-10-20T01:03:20.790Z,23.55
2022-10-20T01:04:20.825Z,23.55
2022-10-20T01:05:20.727Z,23.53
2022-10-20T01:06:20.713Z,23.55
2022-10-20T01:07:20.876Z,23.53
2022-10-20T01:08:20.693Z,23.53
2022-10-20T01:09:20.699Z,23.54
2022-10-20T01:10:20.752Z,23.57
2022-10-20T01:11:20.881Z,23.54
2022-10-20T01:12:20.624Z,23.53
2022-10-20T01:13:20.599Z,23.53
2022-10-20T01:14:20.599Z,23.51
2022-10-20T01:15:20.686Z,23.53
2022-10-20T01:16:20.723Z,23.54
2022-10-20T01:17:20.548Z,23.51
2022-10-20T01:18:20.532Z,23.53
2022-10-20T01:19:20.531Z,23.53
2022-10-20T01:20:20.513Z,23.53
2022-10-20T01:21:20.587Z,23.53
2022-10-20T01:22:20.639Z,23.51
2022-10-20T01:23:20.471Z,23.51
2022-10-20T01:24:20.491Z,23.54
2022-10-20T01:25:20.434Z,23.53
2022-10-20T01:26:20.499Z,23.53
2022-10-20T01:27:20.445Z,23.53
2022-10-20T01:28:20.489Z,23.51
2022-10-20T01:29:20.389Z,23.51
2022-10-20T01:30:20.369Z,23.54
2022-10-20T01:31:20.357Z,23.53
2022-10-20T01:32:20.349Z,23.53
2022-10-20T01:33:20.529Z,23.50
2022-10-20T01:34:20.398Z,23.53
2022-10-20T01:35:20.325Z,23.50
2022-10-20T01:36:20.285Z,23.53
2022-10-20T01:37:28.461Z,23.53
2022-10-20T01:38:21.264Z,23.54
2022-10-20T01:39:20.247Z,23.53
2022-10-20T01:40:20.386Z,23.50
2022-10-20T01:41:20.238Z,23.53
2022-10-20T01:42:20.191Z,23.51
2022-10-20T01:43:20.195Z,23.48
2022-10-20T01:44:20.224Z,23.48
2022-10-20T01:45:20.181Z,23.50
2022-10-20T01:46:20.233Z,23.48
2022-10-20T01:47:20.141Z,23.50
2022-10-20T01:48:20.111Z,23.50
2022-10-20T01:49:20.104Z,23.51
2022-10-20T01:50:20.181Z,23.53
2022-10-20T01:51:20.078Z,23.53
2022-10-20T01:52:20.220Z,23.53
2022-10-20T01:53:20.075Z,23.50
2022-10-20T01:54:20.039Z,23.51
2022-10-20T01:55:20.034Z,23.50
2022-10-20T01:56:20.049Z,23.48
2022-10-20T01:57:19.985Z,23.50
2022-10-20T01:58:20.084Z,23.53
2022-10-20T01:59:20.017Z,23.53
2022-10-20T02:00:19.959Z,23.53
2022-10-20T02:01:19.986Z,23.48
2022-10-20T02:02:19.967Z,23.51
2022-10-20T02:03:19.918Z,23.50
2022-10-20T02:04:19.989Z,23.50
2022-10-20T02:05:19.885Z,23.50
2022-10-20T02:06:19.890Z,23.47
2022-10-20T02:07:19.855Z,23.47
2022-10-20T02:08:19.868Z,23.48
2022-10-20T02:09:19.823Z,23.51
2022-10-20T02:10:20.061Z,23.48
2022-10-20T02:11:19.828Z,23.48
2022-10-20T02:12:19.779Z,23.48
2022-10-20T02:13:19.782Z,23.50
2022-10-20T02:14:19.793Z,23.51
2022-10-20T02:15:19.745Z,23.50
2022-10-20T02:16:19.816Z,23.51
2022-10-20T02:17:19.713Z,23.50
2022-10-20T02:18:19.700Z,23.51
2022-10-20T02:19:19.712Z,23.51
2022-10-20T02:20:19.711Z,23.51
2022-10-20T02:21:19.655Z,23.51
2022-10-20T02:22:19.748Z,23.53
2022-10-20T02:23:19.622Z,23.53
2022-10-20T02:24:19.620Z,23.50
2022-10-20T02:25:19.617Z,23.51
2022-10-20T02:26:19.660Z,23.47
2022-10-20T02:27:19.580Z,23.48
2022-10-20T02:28:19.689Z,23.47
2022-10-20T02:29:19.542Z,23.48
2022-10-20T02:30:19.576Z,23.51
2022-10-20T02:31:19.524Z,23.48
2022-10-20T02:32:19.567Z,23.47
2022-10-20T02:33:19.490Z,23.48
2022-10-20T02:34:19.573Z,23.48
2022-10-20T02:35:19.453Z,23.48
2022-10-20T02:36:19.556Z,23.48
2022-10-20T02:37:19.430Z,23.47
2022-10-20T02:38:19.607Z,23.51
2022-10-20T02:39:19.405Z,23.50
2022-10-20T02:40:19.626Z,23.51
2022-10-20T02:41:19.385Z,23.51
2022-10-20T02:42:19.353Z,23.48
2022-10-20T02:43:19.464Z,23.51
2022-10-20T02:44:19.386Z,23.53
2022-10-20T02:45:19.338Z,23.50
2022-10-20T02:46:19.397Z,23.48
2022-10-20T02:47:19.297Z,23.48
2022-10-20T02:48:19.279Z,23.47
2022-10-20T02:49:19.272Z,23.50
2022-10-20T02:50:19.289Z,23.48
2022-10-20T02:51:19.250Z,23.47
2022-10-20T02:52:19.381Z,23.46
2022-10-20T02:53:19.212Z,23.46
2022-10-20T02:54:19.188Z,23.48
2022-10-20T02:56:19.209Z,23.46
2022-10-20T02:57:19.158Z,23.43
2022-10-20T02:58:19.236Z,23.43
2022-10-20T02:59:19.128Z,23.43
2022-10-20T03:00:19.176Z,23.43
2022-10-20T03:01:19.144Z,23.46
2022-10-20T03:02:19.105Z,23.47
2022-10-20T03:03:19.066Z,23.42
2022-10-20T03:04:19.276Z,23.46
2022-10-20T03:05:19.384Z,23.40
2022-10-20T03:06:19.023Z,23.40
2022-10-20T03:07:19.018Z,23.39
2022-10-20T03:08:19.075Z,23.39
2022-10-20T03:09:19.008Z,23.40
2022-10-20T03:10:19.113Z,23.40
2022-10-20T03:11:19.006Z,23.40
2022-10-20T03:12:18.975Z,23.40
2022-10-20T03:13:18.969Z,23.39
2022-10-20T03:14:19.174Z,23.38
2022-10-20T03:15:19.012Z,23.40
2022-10-20T03:16:19.082Z,23.42
2022-10-20T03:17:19.785Z,23.39
2022-10-20T03:18:18.918Z,23.39
2022-10-20T03:19:18.947Z,23.39
2022-10-20T03:20:18.871Z,23.36
2022-10-20T03:21:18.806Z,23.38
2022-10-20T03:22:19.022Z,23.39
2022-10-20T03:23:20.128Z,23.39
2022-10-20T03:24:18.797Z,23.38
2022-10-20T03:25:18.769Z,23.38
2022-10-20T03:26:18.784Z,23.36
2022-10-20T03:27:18.730Z,23.38
2022-10-20T03:28:18.800Z,23.38
2022-10-20T03:29:18.721Z,23.39
2022-10-20T03:30:18.730Z,23.35
2022-10-20T03:31:18.681Z,23.36
2022-10-20T03:32:18.714Z,23.38
2022-10-20T03:33:18.648Z,23.38
2022-10-20T03:34:18.751Z,23.36
2022-10-20T03:35:18.615Z,23.36
2022-10-20T03:36:18.619Z,23.38
2022-10-20T03:37:18.610Z,23.35
2022-10-20T03:38:18.613Z,23.36
2022-10-20T03:39:18.575Z,23.33
2022-10-20T03:40:18.646Z,23.36
2022-10-20T03:41:18.556Z,23.38
2022-10-20T03:42:18.519Z,23.36
2022-10-20T03:43:18.512Z,23.38
2022-10-20T03:44:18.648Z,23.36
2022-10-20T03:45:18.756Z,23.36
2022-10-20T03:46:18.542Z,23.36
2022-10-20T03:47:18.554Z,23.35
2022-10-20T03:48:18.436Z,23.36
2022-10-20T03:49:18.433Z,23.36
2022-10-20T03:50:18.444Z,23.35
2022-10-20T03:51:18.496Z,23.33
2022-10-20T03:52:18.483Z,23.36
2022-10-20T03:53:18.448Z,23.35
2022-10-20T03:54:18.352Z,23.33
2022-10-20T03:55:18.351Z,23.35
2022-10-20T03:56:18.352Z,23.36
2022-10-20T03:57:18.307Z,23.35
2022-10-20T03:58:18.447Z,23.35
2022-10-20T03:59:18.281Z,23.33
2022-10-20T04:00:18.289Z,23.35
2022-10-20T04:01:18.308Z,23.33
2022-10-20T04:02:18.285Z,23.35
2022-10-20T04:03:18.226Z,23.32
2022-10-20T04:04:18.397Z,23.33
2022-10-20T04:05:18.203Z,23.31
2022-10-20T04:06:18.198Z,23.31
2022-10-20T04:07:18.178Z,23.32
2022-10-20T04:08:18.222Z,23.33
2022-10-20T04:09:18.178Z,23.32
2022-10-20T04:10:18.372Z,23.36
2022-10-20T04:11:18.135Z,23.32
2022-10-20T04:12:18.097Z,23.28
2022-10-20T04:13:18.105Z,23.33
2022-10-20T04:14:18.179Z,23.32
2022-10-20T04:15:18.105Z,23.32
2022-10-20T04:16:18.143Z,23.32
2022-10-20T04:17:18.059Z,23.31
2022-10-20T04:18:18.025Z,23.32
2022-10-20T04:19:18.058Z,23.27
2022-10-20T04:20:18.046Z,23.31
2022-10-20T04:21:17.974Z,23.31
2022-10-20T04:22:18.191Z,23.28
2022-10-20T04:23:17.962Z,23.33
2022-10-20T04:24:17.931Z,23.31
2022-10-20T04:25:17.931Z,23.31
2022-10-20T04:26:17.951Z,23.31
2022-10-20T04:27:17.910Z,23.28
2022-10-20T04:28:18.032Z,23.32
2022-10-20T04:29:17.871Z,23.28
2022-10-20T04:30:17.905Z,23.31
2022-10-20T04:31:17.839Z,23.28
2022-10-20T04:32:17.873Z,23.28
2022-10-20T04:33:17.826Z,23.31
2022-10-20T04:34:17.893Z,23.31
2022-10-20T04:35:17.779Z,23.31
2022-10-20T04:36:17.765Z,23.33
2022-10-20T04:37:17.771Z,23.32
2022-10-20T04:38:17.853Z,23.27
2022-10-20T04:39:17.739Z,23.31
2022-10-20T04:40:17.879Z,23.31
2022-10-20T04:41:17.707Z,23.27
2022-10-20T04:42:17.690Z,23.28
2022-10-20T04:43:17.685Z,23.28
2022-10-20T04:44:17.699Z,23.31
2022-10-20T04:45:17.718Z,23.27
2022-10-20T04:46:17.715Z,23.28
2022-10-20T04:47:17.610Z,23.31
2022-10-20T04:48:17.599Z,23.31
2022-10-20T04:49:17.588Z,23.28
2022-10-20T04:50:17.736Z,23.27
2022-10-20T04:51:17.550Z,23.27
2022-10-20T04:52:17.759Z,23.27
2022-10-20T04:53:17.547Z,23.31
2022-10-20T04:54:17.525Z,23.27
2022-10-20T04:55:17.527Z,23.27
2022-10-20T04:56:17.525Z,23.27
2022-10-20T04:57:17.474Z,23.25
2022-10-20T04:58:17.659Z,23.27
2022-10-20T04:59:17.449Z,23.28
2022-10-20T05:00:17.622Z,23.27
2022-10-20T05:01:17.479Z,23.25
2022-10-20T05:02:17.502Z,23.27
2022-10-20T05:03:17.412Z,23.27
2022-10-20T05:04:17.669Z,23.25
2022-10-20T05:05:17.553Z,23.28
2022-10-20T05:06:17.349Z,23.25
2022-10-20T05:07:17.334Z,23.25
2022-10-20T05:08:17.389Z,23.23
2022-10-20T05:09:17.310Z,23.25
2022-10-20T05:10:17.460Z,23.25
2022-10-20T05:11:17.293Z,23.27
2022-10-20T05:12:17.282Z,23.23
2022-10-20T05:13:17.251Z,23.25
2022-10-20T05:14:17.302Z,23.22
2022-10-20T05:15:17.262Z,23.23
2022-10-20T05:16:17.431Z,23.28
2022-10-20T05:17:17.199Z,23.23
2022-10-20T05:18:17.178Z,23.23
2022-10-20T05:19:17.189Z,23.25
2022-10-20T05:20:17.232Z,23.25
2022-10-20T05:21:17.150Z,23.23
2022-10-20T05:22:17.224Z,23.23
2022-10-20T05:23:17.111Z,23.22
2022-10-20T05:24:20.798Z,23.25
2022-10-20T05:25:35.439Z,23.22
2022-10-20T05:26:18.082Z,23.25
2022-10-20T05:27:17.066Z,23.22
2022-10-20T05:28:17.185Z,23.22
2022-10-20T05:29:17.048Z,23.25
2022-10-20T05:30:17.025Z,23.23
2022-10-20T05:31:17.036Z,23.20
2022-10-20T05:32:16.988Z,23.22
2022-10-20T05:33:17.112Z,23.23
2022-10-20T05:34:17.128Z,23.23
2022-10-20T05:35:16.940Z,23.25
2022-10-20T05:36:19.441Z,23.22
2022-10-20T05:37:16.961Z,23.20
2022-10-20T05:38:16.926Z,23.23
2022-10-20T05:39:16.885Z,23.22
2022-10-20T05:40:17.076Z,23.20
2022-10-20T05:41:16.860Z,23.22
2022-10-20T05:42:16.884Z,23.23
2022-10-20T05:43:17.470Z,23.20
2022-10-20T05:44:16.814Z,23.20
2022-10-20T05:45:16.811Z,23.22
2022-10-20T05:46:16.899Z,23.22
2022-10-20T05:47:16.794Z,23.19
2022-10-20T05:48:16.808Z,23.23
2022-10-20T05:49:16.786Z,23.20
2022-10-20T05:50:16.744Z,23.22
2022-10-20T05:51:16.718Z,23.20
2022-10-20T05:52:16.940Z,23.19
2022-10-20T05:53:16.688Z,23.20
2022-10-20T05:54:16.692Z,23.20
2022-10-20T05:55:16.844Z,23.20
2022-10-20T05:56:16.672Z,23.22
2022-10-20T05:57:16.638Z,23.20
2022-10-20T05:58:19.594Z,23.20
2022-10-20T05:59:17.625Z,23.23
2022-10-20T06:00:16.717Z,23.20
2022-10-20T06:01:16.695Z,23.19
2022-10-20T06:02:16.567Z,23.20
2022-10-20T06:03:17.547Z,23.20
2022-10-20T06:04:16.684Z,23.23
2022-10-20T06:05:16.531Z,23.22
2022-10-20T06:06:16.532Z,23.25
2022-10-20T06:07:16.516Z,23.22
2022-10-20T06:08:16.493Z,23.22
2022-10-20T06:09:16.472Z,23.23
2022-10-20T06:10:16.636Z,23.22
2022-10-20T06:11:16.442Z,23.27
2022-10-20T06:12:16.466Z,23.27
2022-10-20T06:13:16.487Z,23.27
2022-10-20T06:14:16.410Z,23.31
2022-10-20T06:15:16.395Z,23.25
2022-10-20T06:16:16.541Z,23.28
2022-10-20T06:17:16.354Z,23.27
2022-10-20T06:18:16.353Z,23.27
2022-10-20T06:19:16.369Z,23.28
2022-10-20T06:20:16.329Z,23.27
2022-10-20T06:21:16.293Z,23.25
2022-10-20T06:22:16.421Z,23.31
2022-10-20T06:23:16.326Z,23.27
2022-10-20T06:24:16.334Z,23.28
2022-10-20T06:25:16.285Z,23.28
2022-10-20T06:26:16.239Z,23.28
2022-10-20T06:27:16.216Z,23.32
2022-10-20T06:28:16.295Z,23.32
2022-10-20T06:29:16.186Z,23.32
2022-10-20T06:30:16.206Z,23.28
2022-10-20T06:31:16.190Z,23.32
2022-10-20T06:32:16.157Z,23.28
2022-10-20T06:33:16.141Z,23.28
2022-10-20T06:34:16.212Z,23.28
2022-10-20T06:35:16.107Z,23.28
2022-10-20T06:36:16.104Z,23.27
2022-10-20T06:37:16.126Z,23.27
2022-10-20T06:38:16.066Z,23.31
2022-10-20T06:39:16.054Z,23.28
2022-10-20T06:40:16.198Z,23.31
2022-10-20T06:41:16.020Z,23.27
2022-10-20T06:42:16.023Z,23.27
2022-10-20T06:43:16.055Z,23.27
2022-10-20T06:44:15.988Z,23.28
2022-10-20T06:45:17.137Z,23.27
2022-10-20T06:46:16.101Z,23.27
2022-10-20T06:47:15.938Z,23.28
2022-10-20T06:48:15.933Z,23.31
2022-10-20T06:49:16.000Z,23.28
2022-10-20T06:50:15.919Z,23.31
2022-10-20T06:51:15.876Z,23.28
2022-10-20T06:52:15.988Z,23.31
2022-10-20T06:53:15.861Z,23.28
2022-10-20T06:54:15.840Z,23.31
2022-10-20T06:55:15.842Z,23.31
2022-10-20T06:56:15.812Z,23.28
2022-10-20T06:57:15.810Z,23.28
2022-10-20T06:58:15.893Z,23.32
2022-10-20T06:59:15.815Z,23.28
2022-10-20T07:00:15.828Z,23.31
2022-10-20T07:01:15.854Z,23.33
2022-10-20T07:02:15.765Z,23.32
2022-10-20T07:03:15.716Z,23.31
2022-10-20T07:04:15.859Z,23.32
2022-10-20T07:05:15.710Z,23.32
2022-10-20T07:06:15.669Z,23.31
2022-10-20T07:07:15.686Z,23.28
2022-10-20T07:08:15.650Z,23.32
2022-10-20T07:09:15.643Z,23.32
2022-10-20T07:10:15.985Z,23.33
2022-10-20T07:11:15.608Z,23.35
2022-10-20T07:12:15.666Z,23.35
2022-10-20T07:13:15.676Z,23.36
2022-10-20T07:14:15.565Z,23.35
2022-10-20T07:15:15.601Z,23.33
2022-10-20T07:16:15.663Z,23.33
2022-10-20T07:17:15.524Z,23.35
2022-10-20T07:18:15.515Z,23.35
2022-10-20T07:19:15.547Z,23.36
2022-10-20T07:20:15.483Z,23.36
2022-10-20T07:21:15.462Z,23.36
2022-10-20T07:22:15.551Z,23.39
2022-10-20T07:23:15.469Z,23.39
2022-10-20T07:24:15.441Z,23.40
2022-10-20T07:25:15.690Z,23.42
2022-10-20T07:26:15.506Z,23.40
2022-10-20T07:27:15.391Z,23.46
2022-10-20T07:28:15.485Z,23.47
2022-10-20T07:29:15.368Z,23.47
2022-10-20T07:30:15.346Z,23.47
2022-10-20T07:31:15.371Z,23.46
2022-10-20T07:32:15.312Z,23.46
2022-10-20T07:33:15.326Z,23.42
2022-10-20T07:34:30.699Z,23.42
2022-10-20T07:35:16.276Z,23.42
2022-10-20T07:36:15.303Z,23.42
2022-10-20T07:37:15.269Z,23.40
2022-10-20T07:38:15.251Z,23.46
2022-10-20T07:39:15.213Z,23.46
2022-10-20T07:40:15.423Z,23.42
2022-10-20T07:41:15.194Z,23.40
2022-10-20T07:42:15.657Z,23.42
2022-10-20T07:43:15.186Z,23.39
2022-10-20T07:44:15.146Z,23.39
2022-10-20T07:45:15.146Z,23.40
2022-10-20T07:46:15.330Z,23.39
2022-10-20T07:47:15.100Z,23.40
2022-10-20T07:48:15.102Z,23.42
2022-10-20T07:50:16.104Z,23.39
2022-10-20T07:52:15.267Z,23.39
2022-10-20T07:53:15.021Z,23.38
2022-10-20T07:54:15.008Z,23.39
2022-10-20T07:55:36.534Z,23.38
2022-10-20T07:56:16.003Z,23.38
2022-10-20T07:57:14.955Z,23.39
2022-10-20T07:58:15.096Z,23.40
2022-10-20T07:59:14.934Z,23.39
2022-10-20T08:00:14.940Z,23.38
2022-10-20T08:01:14.979Z,23.39
2022-10-20T08:02:14.930Z,23.39
2022-10-20T08:03:14.878Z,23.39
2022-10-20T08:04:14.956Z,23.38
2022-10-20T08:05:14.883Z,23.36
2022-10-20T08:06:14.836Z,23.39
2022-10-20T08:07:15.040Z,23.36
2022-10-20T08:08:14.805Z,23.38
2022-10-20T08:09:14.940Z,23.39
2022-10-20T08:10:14.971Z,23.38
2022-10-20T08:11:14.770Z,23.40
2022-10-20T08:12:14.759Z,23.39
2022-10-20T08:13:14.804Z,23.39
2022-10-20T08:14:14.756Z,23.36
2022-10-20T08:15:20.336Z,23.36
2022-10-20T08:16:14.735Z,23.36
2022-10-20T08:17:14.689Z,23.39
2022-10-20T08:18:15.528Z,23.38
2022-10-20T08:19:17.654Z,23.39
2022-10-20T08:20:14.779Z,23.36
2022-10-20T08:21:14.750Z,23.33
2022-10-20T08:22:14.606Z,23.35
2022-10-20T08:23:14.600Z,23.36
2022-10-20T08:24:14.597Z,23.32
2022-10-20T08:25:14.626Z,23.35
2022-10-20T08:26:14.579Z,23.31
2022-10-20T08:27:14.640Z,23.31
2022-10-20T08:28:15.399Z,23.32
2022-10-20T08:29:15.233Z,23.32
2022-10-20T08:30:29.433Z,23.31
2022-10-20T08:31:15.525Z,23.31
2022-10-20T08:32:14.489Z,23.31
2022-10-20T08:33:14.753Z,23.32
2022-10-20T08:34:14.714Z,23.28
2022-10-20T08:35:14.478Z,23.31
2022-10-20T08:36:14.412Z,23.31
2022-10-20T08:37:14.580Z,23.27
2022-10-20T08:38:14.946Z,23.28
2022-10-20T08:39:14.532Z,23.28
2022-10-20T08:40:14.359Z,23.28
2022-10-20T08:41:14.403Z,23.27
2022-10-20T08:42:14.337Z,23.28
2022-10-20T08:43:15.312Z,23.25
2022-10-20T08:44:14.332Z,23.27
2022-10-20T08:45:15.676Z,23.27
2022-10-20T08:46:14.370Z,23.27
2022-10-20T08:47:14.777Z,23.27
2022-10-20T08:48:14.261Z,23.27
2022-10-20T08:49:14.272Z,23.25
2022-10-20T08:50:14.230Z,23.25
2022-10-20T08:51:14.366Z,23.25
2022-10-20T08:52:14.274Z,23.25
2022-10-20T08:53:14.217Z,23.23
2022-10-20T08:54:14.183Z,23.25
2022-10-20T08:55:14.228Z,23.23
2022-10-20T08:56:14.207Z,23.25
2022-10-20T08:57:14.318Z,23.23
2022-10-20T08:58:14.341Z,23.23
2022-10-20T08:59:15.039Z,23.23
2022-10-20T09:00:14.112Z,23.23
2022-10-20T09:01:14.142Z,23.23
2022-10-20T09:02:14.109Z,23.27
2022-10-20T09:03:14.242Z,23.27
2022-10-20T09:04:14.077Z,23.27
2022-10-20T09:05:16.732Z,23.28
2022-10-20T09:06:15.914Z,23.31
2022-10-20T09:07:14.010Z,23.28
2022-10-20T09:08:14.047Z,23.28
2022-10-20T09:09:14.196Z,23.32
2022-10-20T09:10:14.079Z,23.33
2022-10-20T09:11:14.057Z,23.33
2022-10-20T09:12:14.138Z,23.32
2022-10-20T09:13:13.929Z,23.35
2022-10-20T09:14:13.878Z,23.35
2022-10-20T09:15:15.196Z,23.33
2022-10-20T09:16:22.061Z,23.35
2022-10-20T09:17:15.112Z,23.35
2022-10-20T09:18:13.932Z,23.36
2022-10-20T09:19:13.829Z,23.36
2022-10-20T09:20:13.888Z,23.35
2022-10-20T09:21:13.923Z,23.39
2022-10-20T09:22:13.796Z,23.39
2022-10-20T09:23:35.523Z,23.40
2022-10-20T09:24:14.788Z,23.40
2022-10-20T09:25:13.812Z,23.40
2022-10-20T09:26:24.789Z,23.43
2022-10-20T09:27:14.865Z,23.43
2022-10-20T09:28:13.971Z,23.43
2022-10-20T09:29:14.860Z,23.43
2022-10-20T09:30:13.748Z,23.47
2022-10-20T09:31:13.674Z,23.47
2022-10-20T09:32:44.420Z,23.50
2022-10-20T09:33:14.768Z,23.51
2022-10-20T09:34:13.708Z,23.58
2022-10-20T09:35:13.668Z,23.60
2022-10-20T09:36:13.638Z,23.61
2022-10-20T09:37:13.572Z,23.66
2022-10-20T09:38:13.558Z,23.68
2022-10-20T09:39:13.742Z,23.68
2022-10-20T09:40:13.546Z,23.70
2022-10-20T09:41:13.732Z,23.72
2022-10-20T09:42:13.493Z,23.72
2022-10-20T09:43:13.496Z,23.72
2022-10-20T09:44:13.525Z,23.72
2022-10-20T09:45:13.748Z,23.75
2022-10-20T09:46:13.457Z,23.75
2022-10-20T09:47:13.484Z,23.76
2022-10-20T09:48:13.431Z,23.76
2022-10-20T09:49:13.401Z,23.78
2022-10-20T09:50:13.377Z,23.79
2022-10-20T09:52:13.352Z,23.83
2022-10-20T09:53:13.383Z,23.88
2022-10-20T09:54:13.338Z,23.91
2022-10-20T09:55:13.331Z,23.94
2022-10-20T09:56:13.717Z,23.94
2022-10-20T09:57:13.510Z,23.94
2022-10-20T09:58:17.099Z,23.94
2022-10-20T09:59:13.289Z,23.94
2022-10-20T10:00:25.524Z,23.97
2022-10-20T10:01:14.313Z,23.97
2022-10-20T10:02:13.216Z,23.97
2022-10-20T10:03:13.371Z,23.98
2022-10-20T10:04:13.187Z,23.98
2022-10-20T10:05:13.229Z,24.02
2022-10-20T10:06:13.161Z,24.03
2022-10-20T10:07:13.153Z,24.05
2022-10-20T10:08:13.151Z,24.05
2022-10-20T10:09:14.042Z,24.03
2022-10-20T10:10:13.108Z,24.05
2022-10-20T10:11:13.132Z,24.08
2022-10-20T10:12:13.082Z,24.06
2022-10-20T10:13:13.096Z,24.08
2022-10-20T10:14:13.273Z,24.09
2022-10-20T10:15:13.157Z,24.09
2022-10-20T10:16:13.021Z,24.08
2022-10-20T10:17:13.079Z,24.13
2022-10-20T10:18:12.993Z,24.12
2022-10-20T10:19:12.997Z,24.13
2022-10-20T10:20:12.966Z,24.12
2022-10-20T10:21:13.032Z,24.10
2022-10-20T10:22:12.950Z,24.09
2022-10-20T10:23:13.767Z,24.13
2022-10-20T10:24:12.929Z,24.13
2022-10-20T10:25:12.907Z,24.15
2022-10-20T10:26:12.885Z,24.15
2022-10-20T10:27:12.953Z,24.16
2022-10-20T10:28:12.865Z,24.16
2022-10-20T10:29:12.881Z,24.21
2022-10-20T10:30:12.832Z,24.24
2022-10-20T10:31:12.816Z,24.24
2022-10-20T10:32:12.797Z,24.25
2022-10-20T10:33:13.661Z,24.28
2022-10-20T10:34:12.991Z,24.31
2022-10-20T10:35:12.800Z,24.34
2022-10-20T10:36:12.741Z,24.39
2022-10-20T10:37:12.824Z,24.42
2022-10-20T10:38:12.724Z,24.42
2022-10-20T10:39:12.926Z,24.45
2022-10-20T10:40:12.687Z,24.46
2022-10-20T10:41:12.733Z,24.47
2022-10-20T10:42:12.666Z,24.52
2022-10-20T10:43:12.643Z,24.50
2022-10-20T10:44:12.633Z,24.57
2022-10-20T10:45:12.855Z,24.61
2022-10-20T10:46:12.611Z,24.60
2022-10-20T10:47:12.614Z,24.64
2022-10-20T10:48:12.617Z,24.67
2022-10-20T10:49:12.570Z,24.67
2022-10-20T10:50:12.543Z,24.68
2022-10-20T10:51:12.623Z,24.69
2022-10-20T10:52:12.505Z,24.76
2022-10-20T10:53:12.539Z,24.69
2022-10-20T10:54:12.504Z,24.73
2022-10-20T10:55:21.198Z,24.71
2022-10-20T10:56:13.627Z,24.71
2022-10-20T10:57:12.701Z,24.69
2022-10-20T10:58:15.426Z,24.67
2022-10-20T10:59:12.463Z,24.68
2022-10-20T11:00:12.441Z,24.68
2022-10-20T11:01:12.433Z,24.67
2022-10-20T11:02:12.800Z,24.69
2022-10-20T11:03:12.371Z,24.69
2022-10-20T11:04:12.344Z,24.65
2022-10-20T11:05:12.427Z,24.68
2022-10-20T11:06:12.337Z,24.64
2022-10-20T11:07:12.326Z,24.64
2022-10-20T11:08:12.507Z,24.64
2022-10-20T11:09:12.279Z,24.64
2022-10-20T11:10:12.269Z,24.62
2022-10-20T11:11:12.312Z,24.64
2022-10-20T11:12:12.304Z,24.61
2022-10-20T11:13:12.229Z,24.61
2022-10-20T11:14:12.359Z,24.55
2022-10-20T11:15:12.225Z,24.53
2022-10-20T11:16:12.180Z,24.49
2022-10-20T11:17:12.221Z,24.47
2022-10-20T11:18:12.152Z,24.45
2022-10-20T11:19:12.179Z,24.40
2022-10-20T11:20:12.261Z,24.42
2022-10-20T11:21:12.112Z,24.35
2022-10-20T11:22:14.299Z,24.32
2022-10-20T11:23:12.270Z,24.31
2022-10-20T11:24:12.060Z,24.30
2022-10-20T11:25:12.052Z,24.28
2022-10-20T11:26:12.125Z,24.27
2022-10-20T11:27:12.043Z,24.22
2022-10-20T11:28:12.016Z,24.21
2022-10-20T11:29:12.021Z,24.22
2022-10-20T11:30:12.013Z,24.21
2022-10-20T11:31:11.976Z,24.18
2022-10-20T11:32:12.057Z,24.18
2022-10-20T11:33:11.941Z,24.12
2022-10-20T11:34:11.946Z,24.15
2022-10-20T11:35:11.958Z,24.12
2022-10-20T11:36:11.934Z,24.10
2022-10-20T11:37:11.890Z,24.08
2022-10-20T11:38:12.218Z,24.08
2022-10-20T11:39:11.888Z,24.05
2022-10-20T11:40:11.902Z,24.08
2022-10-20T11:41:11.866Z,24.03
2022-10-20T11:42:11.828Z,24.02
2022-10-20T11:43:14.300Z,24.03
2022-10-20T11:44:11.884Z,24.02
2022-10-20T11:45:11.836Z,24.02
2022-10-20T11:46:11.788Z,23.97
2022-10-20T11:47:11.791Z,23.95
2022-10-20T11:48:11.740Z,23.98
2022-10-20T11:49:11.745Z,23.94
2022-10-20T11:50:11.888Z,23.94
2022-10-20T11:51:11.702Z,23.95
2022-10-20T11:52:11.698Z,23.98
2022-10-20T11:53:11.706Z,23.95
2022-10-20T11:54:11.650Z,23.94
2022-10-20T11:55:11.667Z,23.94
2022-10-20T11:56:11.634Z,23.97
2022-10-20T11:57:11.609Z,23.94
2022-10-20T11:58:11.593Z,23.95
2022-10-20T11:59:11.608Z,23.94
2022-10-20T12:00:11.652Z,23.93
2022-10-20T12:01:11.548Z,23.95
2022-10-20T12:02:11.591Z,23.91
2022-10-20T12:03:11.534Z,23.94
2022-10-20T12:04:11.525Z,23.90
2022-10-20T12:05:11.545Z,23.90
2022-10-20T12:06:11.496Z,23.91
2022-10-20T12:07:11.461Z,23.90
2022-10-20T12:08:28.823Z,23.88
2022-10-20T12:09:12.571Z,23.88
2022-10-20T12:10:11.512Z,23.90
2022-10-20T12:11:11.456Z,23.91
2022-10-20T12:12:11.412Z,23.88
2022-10-20T12:13:11.388Z,23.88
2022-10-20T12:14:11.563Z,23.88
2022-10-20T12:15:13.258Z,23.88
2022-10-20T12:16:11.549Z,23.90
2022-10-20T12:17:11.405Z,23.88
2022-10-20T12:18:11.353Z,23.88
2022-10-20T12:19:11.332Z,23.88
2022-10-20T12:20:11.380Z,23.88
2022-10-20T12:21:11.274Z,23.87
2022-10-20T12:22:11.267Z,23.90
2022-10-20T12:23:11.290Z,23.88
2022-10-20T12:24:12.256Z,23.91
2022-10-20T12:25:11.232Z,23.88
2022-10-20T12:26:11.302Z,23.91
2022-10-20T12:27:11.210Z,23.90
2022-10-20T12:28:11.189Z,23.91
2022-10-20T12:29:11.365Z,23.93
2022-10-20T12:30:11.186Z,23.93
2022-10-20T12:31:11.151Z,23.94
2022-10-20T12:32:11.216Z,23.93
2022-10-20T12:33:11.120Z,23.93
2022-10-20T12:34:11.098Z,23.94
2022-10-20T12:35:11.100Z,23.95
2022-10-20T12:36:11.062Z,23.94
2022-10-20T12:37:11.184Z,23.94
2022-10-20T12:38:11.137Z,23.95
2022-10-20T12:39:11.025Z,23.97
2022-10-20T12:40:11.113Z,23.95
2022-10-20T12:41:11.034Z,23.94
2022-10-20T12:42:11.021Z,23.95
2022-10-20T12:43:10.977Z,23.95
2022-10-20T12:44:11.120Z,23.95
2022-10-20T12:45:10.942Z,23.94
2022-10-20T12:46:10.990Z,23.93
2022-10-20T12:47:10.965Z,23.95
2022-10-20T12:48:10.900Z,23.95
2022-10-20T12:49:11.999Z,23.94
2022-10-20T12:50:11.118Z,23.94
2022-10-20T12:51:10.883Z,23.94
2022-10-20T12:52:10.840Z,23.94
2022-10-20T12:53:10.871Z,23.94
2022-10-20T12:54:10.850Z,23.95
2022-10-20T12:55:10.888Z,23.93
2022-10-20T12:56:11.477Z,23.94